Time;durP1;ratioP1;P1;durP2;ratioP2;P2;SDS_P1;SDS_P2;PMS_P1;PMS_P2;Temp;Humidity;BMP_temperature;BMP_pressure;BME280_temperature;BME280_humidity;BME280_pressure;Samples;Min_cycle;Max_cycle;Signal;HPM_P1;HPM_P2
2023/09/04 00:01:35;;;;;;;5.20;3.22;;;;;;;;;;5092190;28;20039;-93
2023/09/04 00:04:20;;;;;;;5.00;3.40;;;;;;;;;;5092573;28;20039;-94
2023/09/04 00:07:05;;;;;;;4.97;3.28;;;;;;;;;;5087099;28;20031;-92
2023/09/04 00:09:50;;;;;;;4.25;3.30;;;;;;;;;;5096544;28;20411;-92
2023/09/04 00:12:34;;;;;;;5.05;3.20;;;;;;;;;;5106587;28;20094;-90
2023/09/04 00:15:19;;;;;;;5.20;3.65;;;;;;;;;;5099895;28;20043;-94
2023/09/04 00:18:03;;;;;;;6.50;3.65;;;;;;;;;;5081044;28;20089;-92
2023/09/04 00:20:48;;;;;;;6.88;4.25;;;;;;;;;;5076507;28;20044;-93
2023/09/04 00:23:32;;;;;;;7.95;4.93;;;;;;;;;;5096472;28;20043;-94
2023/09/04 00:26:17;;;;;;;5.07;3.42;;;;;;;;;;5099531;28;20089;-93
2023/09/04 00:29:02;;;;;;;5.60;3.65;;;;;;;;;;5092076;28;20042;-94
2023/09/04 00:31:46;;;;;;;5.63;3.40;;;;;;;;;;5091803;28;20077;-87
2023/09/04 00:34:31;;;;;;;4.60;2.75;;;;;;;;;;5092267;28;20495;-93
2023/09/04 00:37:15;;;;;;;3.90;2.80;;;;;;;;;;5076821;28;20039;-93
2023/09/04 00:40:00;;;;;;;4.90;3.15;;;;;;;;;;5091684;28;20043;-94
2023/09/04 00:42:45;;;;;;;3.50;2.83;;;;;;;;;;5084815;28;20164;-94
2023/09/04 00:45:29;;;;;;;4.30;2.72;;;;;;;;;;5080300;28;20070;-93
2023/09/04 00:48:14;;;;;;;3.67;2.88;;;;;;;;;;5092347;28;20039;-94
2023/09/04 00:51:00;;;;;;;3.97;3.03;;;;;;;;;;5091464;28;20035;-94
2023/09/04 00:53:45;;;;;;;5.40;3.50;;;;;;;;;;5076762;28;20039;-94
2023/09/04 00:56:29;;;;;;;4.40;3.20;;;;;;;;;;5092119;28;20074;-94
2023/09/04 00:59:14;;;;;;;4.30;2.90;;;;;;;;;;5091846;28;20035;-94
2023/09/04 01:01:59;;;;;;;4.45;3.03;;;;;;;;;;5091508;28;20046;-94
2023/09/04 01:04:44;;;;;;;3.88;3.05;;;;;;;;;;5079457;28;20081;-93
2023/09/04 01:07:29;;;;;;;4.38;2.63;;;;;;;;;;5096010;28;20071;-93
2023/09/04 01:10:14;;;;;;;3.78;2.40;;;;;;;;;;5095614;28;20498;-93
2023/09/04 01:13:04;;;;;;;3.90;3.10;;;;;;;;;;5079878;28;20124;-95
2023/09/04 01:15:49;;;;;;;5.38;3.72;;;;;;;;;;5108977;28;20498;-93
2023/09/04 01:18:34;;;;;;;4.15;3.15;;;;;;;;;;5107892;28;20035;-94
2023/09/04 01:21:18;;;;;;;5.38;3.63;;;;;;;;;;5095748;28;20145;-93
2023/09/04 01:24:03;;;;;;;4.13;3.45;;;;;;;;;;5079977;28;20074;-93
2023/09/04 01:26:56;;;;;;;5.82;3.30;;;;;;;;;;5080398;28;20047;-92
2023/09/04 01:30:07;;;;;;;3.72;2.95;;;;;;;;;;5095659;28;20077;-94
2023/09/04 01:32:55;;;;;;;3.90;3.20;;;;;;;;;;5095774;28;20035;-94
2023/09/04 01:35:42;;;;;;;4.97;3.15;;;;;;;;;;5091944;28;20085;-94
2023/09/04 01:38:27;;;;;;;3.80;2.90;;;;;;;;;;5095368;28;20074;-94
2023/09/04 01:41:12;;;;;;;6.90;3.28;;;;;;;;;;5095097;28;20076;-94
2023/09/04 01:43:57;;;;;;;4.65;2.70;;;;;;;;;;5079521;28;20113;-91
2023/09/04 01:46:42;;;;;;;3.83;2.70;;;;;;;;;;5079797;28;20157;-94
2023/09/04 01:49:26;;;;;;;3.60;2.60;;;;;;;;;;5095423;28;20108;-93
2023/09/04 01:52:11;;;;;;;4.63;2.90;;;;;;;;;;5094548;28;20039;-94
2023/09/04 01:54:55;;;;;;;3.80;2.90;;;;;;;;;;5095324;28;20165;-93
2023/09/04 01:57:40;;;;;;;4.47;2.90;;;;;;;;;;5080035;28;20082;-92
2023/09/04 02:00:24;;;;;;;5.35;2.80;;;;;;;;;;5079899;28;20039;-93
2023/09/04 02:03:09;;;;;;;3.72;2.75;;;;;;;;;;5094589;28;20062;-94
2023/09/04 02:05:54;;;;;;;5.15;2.40;;;;;;;;;;5094750;28;20067;-94
2023/09/04 02:08:39;;;;;;;4.57;2.92;;;;;;;;;;5094754;28;20082;-91
2023/09/04 02:11:24;;;;;;;5.43;3.08;;;;;;;;;;5094574;28;20141;-94
2023/09/04 02:14:08;;;;;;;5.57;2.92;;;;;;;;;;5093765;28;20054;-94
2023/09/04 02:16:53;;;;;;;4.65;2.60;;;;;;;;;;5094692;28;20044;-93
2023/09/04 02:19:38;;;;;;;4.20;2.85;;;;;;;;;;5079390;28;20039;-93
2023/09/04 02:22:22;;;;;;;4.82;2.40;;;;;;;;;;5076080;28;20433;-94
2023/09/04 02:25:07;;;;;;;3.13;2.20;;;;;;;;;;5093967;28;20085;-94
2023/09/04 02:27:52;;;;;;;3.95;2.30;;;;;;;;;;5094313;28;20042;-93
2023/09/04 02:30:40;;;;;;;3.55;2.42;;;;;;;;;;5094453;28;20090;-93
2023/09/04 02:33:24;;;;;;;4.35;2.50;;;;;;;;;;5093902;28;20039;-94
2023/09/04 02:36:09;;;;;;;7.43;2.22;;;;;;;;;;5093893;28;20043;-94
2023/09/04 02:38:53;;;;;;;4.93;3.00;;;;;;;;;;5094289;28;20035;-94
2023/09/04 02:41:38;;;;;;;3.00;2.30;;;;;;;;;;5094057;28;20042;-94
2023/09/04 02:44:22;;;;;;;3.40;2.05;;;;;;;;;;5093458;28;20067;-92
2023/09/04 02:47:07;;;;;;;5.18;2.58;;;;;;;;;;5078255;28;20047;-93
2023/09/04 02:49:52;;;;;;;3.35;2.50;;;;;;;;;;5078844;28;20043;-95
2023/09/04 02:52:36;;;;;;;3.72;2.58;;;;;;;;;;5093875;28;20043;-94
2023/09/04 02:55:21;;;;;;;4.70;2.70;;;;;;;;;;5093306;28;20519;-94
2023/09/04 02:58:05;;;;;;;5.47;3.55;;;;;;;;;;5093608;28;20403;-87
2023/09/04 03:00:50;;;;;;;5.88;3.13;;;;;;;;;;5078521;28;20043;-93
2023/09/04 03:03:36;;;;;;;5.05;2.60;;;;;;;;;;5093766;28;20086;-94
2023/09/04 03:06:21;;;;;;;4.70;2.63;;;;;;;;;;5077853;28;20077;-94
2023/09/04 03:09:05;;;;;;;3.85;2.60;;;;;;;;;;5093489;28;20438;-88
2023/09/04 03:11:50;;;;;;;5.40;3.10;;;;;;;;;;5093533;28;20165;-94
2023/09/04 03:14:35;;;;;;;4.97;3.15;;;;;;;;;;5096560;28;20088;-94
2023/09/04 03:17:19;;;;;;;6.45;3.08;;;;;;;;;;5101618;28;20482;-93
2023/09/04 03:20:05;;;;;;;4.82;3.17;;;;;;;;;;5078306;28;20085;-93
2023/09/04 03:22:50;;;;;;;5.20;2.75;;;;;;;;;;5093379;28;20042;-94
2023/09/04 03:25:35;;;;;;;4.38;3.05;;;;;;;;;;5078131;28;20115;-92
2023/09/04 03:28:20;;;;;;;5.55;3.42;;;;;;;;;;5092408;28;20039;-94
2023/09/04 03:31:05;;;;;;;5.15;4.00;;;;;;;;;;5093428;28;20042;-92
2023/09/04 03:33:49;;;;;;;5.03;3.80;;;;;;;;;;5077948;28;20047;-93
2023/09/04 03:36:34;;;;;;;8.75;3.33;;;;;;;;;;5092710;28;20047;-93
2023/09/04 03:39:19;;;;;;;6.40;3.42;;;;;;;;;;5092622;28;20097;-93
2023/09/04 03:42:04;;;;;;;5.70;2.90;;;;;;;;;;5092908;28;20077;-94
2023/09/04 03:44:49;;;;;;;4.95;3.13;;;;;;;;;;5077664;28;20105;-93
2023/09/04 03:47:33;;;;;;;5.45;3.15;;;;;;;;;;5077219;28;20059;-94
2023/09/04 03:50:18;;;;;;;6.22;3.17;;;;;;;;;;5092176;28;20043;-93
2023/09/04 03:53:03;;;;;;;6.45;3.70;;;;;;;;;;5077327;28;20086;-94
2023/09/04 03:55:48;;;;;;;4.07;3.30;;;;;;;;;;5092934;28;20046;-94
2023/09/04 03:58:33;;;;;;;7.80;3.97;;;;;;;;;;5076825;28;20042;-93
2023/09/04 04:01:18;;;;;;;5.72;4.07;;;;;;;;;;5092303;28;20094;-93
2023/09/04 04:04:02;;;;;;;5.63;3.88;;;;;;;;;;5092597;28;20038;-93
2023/09/04 04:06:47;;;;;;;6.45;4.05;;;;;;;;;;5092600;28;20047;-94
2023/09/04 04:09:31;;;;;;;7.07;4.22;;;;;;;;;;5082960;28;20051;-92
2023/09/04 04:12:16;;;;;;;7.95;3.83;;;;;;;;;;5095946;28;20054;-88
2023/09/04 04:15:04;;;;;;;7.03;3.53;;;;;;;;;;5098988;28;20039;-93
2023/09/04 04:17:49;;;;;;;4.75;3.58;;;;;;;;;;5096675;28;20100;-94
2023/09/04 04:20:34;;;;;;;6.35;3.97;;;;;;;;;;5091938;28;20047;-93
2023/09/04 04:23:19;;;;;;;5.72;4.47;;;;;;;;;;5091803;28;20495;-93
2023/09/04 04:26:04;;;;;;;5.20;3.90;;;;;;;;;;5092410;28;20453;-93
2023/09/04 04:28:48;;;;;;;5.35;3.70;;;;;;;;;;5092140;28;20120;-95
2023/09/04 04:31:33;;;;;;;6.70;3.60;;;;;;;;;;5076532;28;20158;-94
2023/09/04 04:34:18;;;;;;;9.35;4.03;;;;;;;;;;5092077;28;20051;-87
2023/09/04 04:37:04;;;;;;;6.60;3.60;;;;;;;;;;5076725;28;20043;-93
2023/09/04 04:39:48;;;;;;;4.13;3.10;;;;;;;;;;5076838;28;20078;-94
2023/09/04 04:42:33;;;;;;;5.45;4.10;;;;;;;;;;5091566;28;20136;-92
2023/09/04 04:45:18;;;;;;;6.97;3.92;;;;;;;;;;5091769;28;20043;-88
2023/09/04 04:48:03;;;;;;;5.28;3.80;;;;;;;;;;5092086;28;20506;-93
2023/09/04 04:50:48;;;;;;;5.43;3.90;;;;;;;;;;5076806;28;20037;-94
2023/09/04 04:53:33;;;;;;;5.72;3.72;;;;;;;;;;5091347;28;20047;-93
2023/09/04 04:56:18;;;;;;;4.93;3.38;;;;;;;;;;5092048;28;20039;-94
2023/09/04 04:59:03;;;;;;;5.55;3.58;;;;;;;;;;5076898;28;20115;-95
2023/09/04 05:01:47;;;;;;;5.88;3.15;;;;;;;;;;5092101;28;20093;-92
2023/09/04 05:04:35;;;;;;;5.38;3.08;;;;;;;;;;5076511;28;20050;-93
2023/09/04 05:07:19;;;;;;;8.07;3.88;;;;;;;;;;5091933;28;20483;-93
2023/09/04 05:10:04;;;;;;;5.10;2.90;;;;;;;;;;5076779;28;20045;-95
2023/09/04 05:12:49;;;;;;;6.50;3.53;;;;;;;;;;5076590;28;20058;-94
2023/09/04 05:15:34;;;;;;;6.15;3.63;;;;;;;;;;5102495;28;20047;-93
2023/09/04 05:18:18;;;;;;;5.95;3.92;;;;;;;;;;5076775;28;20094;-93
2023/09/04 05:21:06;;;;;;;5.28;4.03;;;;;;;;;;5091766;28;20075;-94
2023/09/04 05:23:52;;;;;;;5.65;4.07;;;;;;;;;;5091707;28;20052;-93
2023/09/04 05:26:37;;;;;;;5.97;4.68;;;;;;;;;;5091133;28;20117;-94
2023/09/04 05:29:21;;;;;;;7.30;4.95;;;;;;;;;;5075105;28;20126;-95
2023/09/04 05:32:06;;;;;;;8.02;5.00;;;;;;;;;;5097933;28;20035;-94
2023/09/04 05:34:54;;;;;;;7.32;6.20;;;;;;;;;;5109884;28;20053;-93
2023/09/04 05:37:39;;;;;;;8.52;6.05;;;;;;;;;;5101972;28;20100;-95
2023/09/04 05:40:24;;;;;;;8.07;5.70;;;;;;;;;;5082382;28;20031;-95
2023/09/04 05:43:09;;;;;;;9.57;6.65;;;;;;;;;;5081866;28;20066;-93
2023/09/04 05:45:53;;;;;;;10.55;8.23;;;;;;;;;;5091208;28;20121;-94
2023/09/04 05:48:38;;;;;;;12.23;7.78;;;;;;;;;;5089889;28;20066;-94
2023/09/04 05:51:23;;;;;;;13.20;8.18;;;;;;;;;;5079736;28;20062;-94
2023/09/04 05:54:07;;;;;;;11.65;8.43;;;;;;;;;;5074956;28;20097;-93
2023/09/04 05:56:52;;;;;;;14.98;10.18;;;;;;;;;;5094807;28;20050;-92
2023/09/04 05:59:36;;;;;;;16.08;10.85;;;;;;;;;;5072427;28;20039;-94
2023/09/04 06:02:21;;;;;;;15.27;11.30;;;;;;;;;;5104558;28;20039;-95
2023/09/04 06:05:06;;;;;;;16.80;11.27;;;;;;;;;;5100523;28;20116;-94
2023/09/04 06:07:50;;;;;;;17.65;11.85;;;;;;;;;;5078624;28;20047;-95
2023/09/04 06:10:35;;;;;;;15.27;11.25;;;;;;;;;;5093172;28;20121;-95
2023/09/04 06:13:19;;;;;;;14.52;11.18;;;;;;;;;;5090899;28;20043;-92
2023/09/04 06:16:04;;;;;;;15.98;11.18;;;;;;;;;;5080358;28;20090;-94
2023/09/04 06:18:49;;;;;;;14.40;10.50;;;;;;;;;;5093928;28;20070;-94
2023/09/04 06:21:33;;;;;;;16.88;11.90;;;;;;;;;;5092446;28;20132;-93
2023/09/04 06:24:18;;;;;;;15.23;11.70;;;;;;;;;;5094276;28;20121;-92
2023/09/04 06:27:02;;;;;;;17.88;11.88;;;;;;;;;;5087670;28;20047;-94
2023/09/04 06:29:47;;;;;;;17.40;12.15;;;;;;;;;;5087521;28;20507;-93
2023/09/04 06:32:32;;;;;;;15.45;11.50;;;;;;;;;;5072102;28;20039;-88
2023/09/04 06:35:16;;;;;;;14.55;11.18;;;;;;;;;;5065768;28;20054;-93
2023/09/04 06:38:01;;;;;;;13.20;10.70;;;;;;;;;;5092416;28;20081;-94
2023/09/04 06:40:45;;;;;;;12.15;10.35;;;;;;;;;;5093104;28;20039;-93
2023/09/04 06:43:30;;;;;;;14.57;10.63;;;;;;;;;;5078802;28;20109;-93
2023/09/04 06:46:15;;;;;;;14.75;9.90;;;;;;;;;;5073870;28;20047;-91
2023/09/04 06:49:00;;;;;;;13.20;9.60;;;;;;;;;;5091158;28;20039;-91
2023/09/04 06:51:44;;;;;;;14.40;9.57;;;;;;;;;;5087720;28;20047;-94
2023/09/04 06:54:29;;;;;;;14.35;9.43;;;;;;;;;;5090313;28;20039;-94
2023/09/04 06:57:15;;;;;;;12.50;9.25;;;;;;;;;;5088350;28;20085;-95
2023/09/04 07:00:06;;;;;;;12.93;8.73;;;;;;;;;;5088403;28;20054;-93
2023/09/04 07:02:51;;;;;;;10.68;8.32;;;;;;;;;;5075244;28;20110;-92
2023/09/04 07:05:36;;;;;;;11.65;7.78;;;;;;;;;;5076522;28;20040;-92
2023/09/04 07:08:20;;;;;;;13.57;7.93;;;;;;;;;;5084743;28;20044;-94
2023/09/04 07:11:05;;;;;;;9.25;7.38;;;;;;;;;;5076095;28;20530;-93
2023/09/04 07:13:49;;;;;;;7.88;6.60;;;;;;;;;;5083902;28;20059;-94
2023/09/04 07:16:37;;;;;;;7.90;6.25;;;;;;;;;;5087125;28;20063;-93
2023/09/04 07:19:22;;;;;;;9.45;5.38;;;;;;;;;;5073347;28;20169;-93
2023/09/04 07:22:06;;;;;;;6.32;5.03;;;;;;;;;;5073221;28;20097;-93
2023/09/04 07:24:51;;;;;;;6.15;4.60;;;;;;;;;;5072528;28;20495;-93
2023/09/04 07:27:36;;;;;;;9.63;4.90;;;;;;;;;;5073236;28;20043;-93
2023/09/04 07:30:20;;;;;;;6.07;4.43;;;;;;;;;;5072665;28;20113;-92
2023/09/04 07:33:05;;;;;;;6.30;5.10;;;;;;;;;;5072243;28;20087;-93
2023/09/04 07:35:55;;;;;;;8.13;5.10;;;;;;;;;;5071705;28;20086;-93
2023/09/04 07:38:41;;;;;;;6.70;4.63;;;;;;;;;;5072917;28;20040;-93
2023/09/04 07:41:25;;;;;;;11.73;4.82;;;;;;;;;;5073449;28;20054;-93
2023/09/04 07:44:10;;;;;;;8.35;5.13;;;;;;;;;;5097097;28;20051;-92
2023/09/04 07:46:55;;;;;;;7.80;5.00;;;;;;;;;;5095623;28;20042;-92
2023/09/04 07:49:39;;;;;;;7.03;5.70;;;;;;;;;;5077793;28;20039;-95
2023/09/04 07:52:24;;;;;;;6.55;5.00;;;;;;;;;;5078078;28;20063;-94
2023/09/04 07:55:09;;;;;;;6.05;4.80;;;;;;;;;;5092976;28;20047;-95
2023/09/04 07:57:54;;;;;;;7.32;4.75;;;;;;;;;;5087561;28;20441;-93
2023/09/04 08:00:44;;;;;;;5.53;4.35;;;;;;;;;;5079492;28;20066;-91
2023/09/04 08:03:32;;;;;;;7.10;4.28;;;;;;;;;;5093351;28;20043;-93
2023/09/04 08:06:16;;;;;;;6.43;4.57;;;;;;;;;;5078699;28;20097;-94
2023/09/04 08:09:01;;;;;;;5.93;4.25;;;;;;;;;;5077974;28;20495;-93
2023/09/04 08:11:46;;;;;;;5.72;3.50;;;;;;;;;;5077930;28;20569;-88
2023/09/04 08:14:35;;;;;;;6.35;3.40;;;;;;;;;;5095389;28;20391;-94
2023/09/04 08:17:20;;;;;;;5.45;3.22;;;;;;;;;;5101198;28;20043;-92
2023/09/04 08:20:05;;;;;;;4.80;3.13;;;;;;;;;;5092136;28;20042;-94
2023/09/04 08:22:50;;;;;;;3.65;2.83;;;;;;;;;;5092922;28;20093;-93
2023/09/04 08:25:35;;;;;;;4.28;2.85;;;;;;;;;;5077009;28;20071;-92
2023/09/04 08:28:19;;;;;;;7.13;3.50;;;;;;;;;;5092341;28;20039;-93
2023/09/04 08:31:04;;;;;;;5.38;3.15;;;;;;;;;;5092619;28;20043;-95
2023/09/04 08:33:49;;;;;;;6.38;2.60;;;;;;;;;;5092608;28;20047;-88
2023/09/04 08:36:33;;;;;;;6.85;3.10;;;;;;;;;;5077590;28;20050;-96
2023/09/04 08:39:18;;;;;;;4.40;2.70;;;;;;;;;;5093324;28;20093;-93
2023/09/04 08:42:07;;;;;;;6.95;2.83;;;;;;;;;;5092207;28;20038;-92
2023/09/04 08:44:51;;;;;;;4.05;2.78;;;;;;;;;;5092138;28;20100;-87
2023/09/04 08:47:40;;;;;;;4.97;2.55;;;;;;;;;;5093080;28;20043;-93
2023/09/04 08:50:26;;;;;;;5.63;2.58;;;;;;;;;;5092393;28;20031;-94
2023/09/04 08:53:11;;;;;;;3.63;2.35;;;;;;;;;;5092490;28;20681;-93
2023/09/04 08:55:55;;;;;;;6.47;2.22;;;;;;;;;;5093439;28;20051;-94
2023/09/04 08:58:41;;;;;;;5.03;2.00;;;;;;;;;;5092467;28;20116;-94
2023/09/04 09:01:30;;;;;;;3.50;1.98;;;;;;;;;;5092643;28;20043;-93
2023/09/04 09:04:15;;;;;;;5.70;2.47;;;;;;;;;;5092153;28;20396;-93
2023/09/04 09:07:02;;;;;;;4.10;2.05;;;;;;;;;;5092663;28;20050;-94
2023/09/04 09:09:50;;;;;;;4.15;2.17;;;;;;;;;;5092598;28;20063;-94
2023/09/04 09:12:34;;;;;;;5.43;2.83;;;;;;;;;;5091830;28;20042;-91
2023/09/04 09:15:19;;;;;;;5.65;1.95;;;;;;;;;;5100849;28;20043;-95
2023/09/04 09:18:03;;;;;;;5.70;2.38;;;;;;;;;;5093154;28;20754;-90
2023/09/04 09:20:48;;;;;;;4.78;2.17;;;;;;;;;;5076105;28;20046;-90
2023/09/04 09:23:33;;;;;;;6.15;2.42;;;;;;;;;;5075323;28;20054;-91
2023/09/04 09:26:18;;;;;;;4.85;2.30;;;;;;;;;;5078870;28;20085;-90
2023/09/04 09:29:03;;;;;;;4.03;2.00;;;;;;;;;;5095613;28;20524;-90
2023/09/04 09:31:48;;;;;;;4.25;1.90;;;;;;;;;;5095299;28;20596;-91
2023/09/04 09:34:33;;;;;;;3.42;2.00;;;;;;;;;;5108255;28;20054;-90
2023/09/04 09:37:19;;;;;;;2.97;2.15;;;;;;;;;;5085520;28;20099;-88
2023/09/04 09:40:09;;;;;;;3.22;1.90;;;;;;;;;;5098221;28;20465;-90
2023/09/04 09:42:54;;;;;;;12.20;2.30;;;;;;;;;;5095677;28;20481;-90
2023/09/04 09:45:38;;;;;;;4.78;1.90;;;;;;;;;;5102462;28;20084;-92
